createdAt,value
2022-11-17T00:01:10.731Z,102357.25
2022-11-17T00:03:39.101Z,102365.47
2022-11-17T00:06:11.068Z,102371.06
2022-11-17T00:08:41.867Z,102366.03
2022-11-17T00:11:12.602Z,102369.00
2022-11-17T00:14:15.043Z,102366.63
2022-11-17T00:16:43.388Z,102370.69
2022-11-17T00:19:29.828Z,102377.31
2022-11-17T00:22:00.767Z,102376.81
2022-11-17T00:24:34.156Z,102379.94
2022-11-17T00:27:04.319Z,102376.84
2022-11-17T00:29:35.316Z,102383.56
2022-11-17T00:32:26.229Z,102388.50
2022-11-17T00:35:00.068Z,102386.34
2022-11-17T00:37:30.683Z,102391.16
2022-11-17T00:40:01.544Z,102390.66
2022-11-17T00:42:30.039Z,102390.13
2022-11-17T00:45:01.394Z,102398.41
2022-11-17T00:47:29.734Z,102410.22
2022-11-17T00:49:59.721Z,102408.72
2022-11-17T00:52:28.060Z,102411.63
2022-11-17T00:54:56.534Z,102404.78
2022-11-17T00:57:24.984Z,102409.50
2022-11-17T00:59:53.407Z,102414.22
2022-11-17T01:02:24.510Z,102412.69
2022-11-17T01:04:54.892Z,102413.78
2022-11-17T01:07:25.487Z,102409.50
2022-11-17T01:09:53.889Z,102409.69
2022-11-17T01:12:22.424Z,102416.03
2022-11-17T01:14:50.700Z,102415.31
2022-11-17T01:17:24.282Z,102416.34
2022-11-17T01:19:55.617Z,102414.69
2022-11-17T01:22:23.990Z,102416.59
2022-11-17T01:24:52.361Z,102422.03
2022-11-17T01:27:23.253Z,102418.63
2022-11-17T01:29:51.827Z,102424.97
2022-11-17T01:32:23.010Z,102425.03
2022-11-17T01:34:53.772Z,102423.31
2022-11-17T01:37:24.130Z,102422.53
2022-11-17T01:39:54.768Z,102425.25
2022-11-17T01:42:26.583Z,102434.25
2022-11-17T01:45:23.949Z,102437.03
2022-11-17T01:48:02.281Z,102437.13
2022-11-17T01:50:48.046Z,102438.94
2022-11-17T01:53:20.947Z,102434.63
2022-11-17T01:56:02.073Z,102442.69
2022-11-17T01:58:42.478Z,102441.91
2022-11-17T02:01:15.238Z,102438.41
2022-11-17T02:03:49.137Z,102441.13
2022-11-17T02:06:33.464Z,102440.28
2022-11-17T02:09:09.072Z,102439.47
2022-11-17T02:11:37.479Z,102437.78
2022-11-17T02:14:06.477Z,102440.47
2022-11-17T02:16:37.228Z,102435.25
2022-11-17T02:19:05.764Z,102442.41
2022-11-17T02:21:49.206Z,102447.78
2022-11-17T02:24:29.953Z,102442.59
2022-11-17T02:27:22.208Z,102447.94
2022-11-17T02:30:16.406Z,102447.09
2022-11-17T02:33:05.343Z,102449.78
2022-11-17T02:36:05.954Z,102447.09
2022-11-17T02:39:10.624Z,102444.47
2022-11-17T02:42:05.469Z,102441.84
2022-11-17T02:44:40.875Z,102454.31
2022-11-17T02:47:31.396Z,102449.94
2022-11-17T02:50:11.972Z,102451.72
2022-11-17T02:52:40.316Z,102447.31
2022-11-17T02:55:11.590Z,102456.19
2022-11-17T02:57:41.987Z,102463.28
2022-11-17T03:00:17.459Z,102455.38
2022-11-17T03:03:21.118Z,102463.38
2022-11-17T03:06:20.327Z,102462.50
2022-11-17T03:09:20.761Z,102466.97
2022-11-17T03:12:17.677Z,102459.88
2022-11-17T03:15:00.630Z,102465.22
2022-11-17T03:17:45.120Z,102474.06
2022-11-17T03:20:48.621Z,102470.53
2022-11-17T03:23:25.460Z,102474.09
2022-11-17T03:26:01.995Z,102467.91
2022-11-17T03:28:36.831Z,102467.03
2022-11-17T03:31:10.147Z,102470.59
2022-11-17T03:33:40.974Z,102475.03
2022-11-17T03:36:20.728Z,102478.59
2022-11-17T03:39:04.495Z,102475.06
2022-11-17T03:41:39.266Z,102473.31
2022-11-17T03:44:08.829Z,102473.31
2022-11-17T03:46:44.042Z,102478.63
2022-11-17T03:49:45.239Z,102481.28
2022-11-17T03:52:13.623Z,102480.41
2022-11-17T03:54:42.820Z,102482.19
2022-11-17T03:57:29.059Z,102474.25
2022-11-17T04:00:00.472Z,102482.19
2022-11-17T04:02:31.564Z,102482.19
2022-11-17T04:05:13.500Z,102480.41
2022-11-17T04:07:45.827Z,102483.06
2022-11-17T04:10:19.719Z,102487.47
2022-11-17T04:13:09.460Z,102485.72
2022-11-17T04:15:59.828Z,102491.91
2022-11-17T04:18:28.362Z,102489.22
2022-11-17T04:20:58.358Z,102485.72
2022-11-17T04:23:27.217Z,102489.25
2022-11-17T04:26:15.980Z,102483.03
2022-11-17T04:28:49.561Z,102485.69
2022-11-17T04:31:26.134Z,102480.41
2022-11-17T04:34:05.940Z,102490.06
2022-11-17T04:36:41.625Z,102486.56
2022-11-17T04:39:10.559Z,102482.13
2022-11-17T04:42:07.334Z,102486.56
2022-11-17T04:44:38.739Z,102496.22
2022-11-17T04:47:08.027Z,102494.41
2022-11-17T04:49:39.339Z,102497.94
2022-11-17T04:52:07.714Z,102501.47
2022-11-17T04:54:38.739Z,102497.03
2022-11-17T04:57:12.839Z,102507.59
2022-11-17T04:59:41.100Z,102512.91
2022-11-17T05:02:19.303Z,102511.13
2022-11-17T05:05:02.719Z,102506.69
2022-11-17T05:07:41.720Z,102514.63
2022-11-17T05:10:15.960Z,102500.50
2022-11-17T05:13:04.222Z,102499.56
2022-11-17T05:15:54.109Z,102499.56
2022-11-17T05:18:27.240Z,102503.06
2022-11-17T05:20:55.539Z,102502.13
2022-11-17T05:23:42.407Z,102502.09
2022-11-17T05:26:13.745Z,102495.91
2022-11-17T05:28:44.820Z,102495.00
2022-11-17T05:31:16.031Z,102495.00
2022-11-17T05:33:45.104Z,102491.44
2022-11-17T05:36:14.467Z,102497.63
2022-11-17T05:38:48.311Z,102509.03
2022-11-17T05:41:19.375Z,102505.53
2022-11-17T05:43:55.381Z,102508.13
2022-11-17T05:46:27.685Z,102508.09
2022-11-17T05:48:58.302Z,102507.19
2022-11-17T05:51:38.741Z,102508.94
2022-11-17T05:54:08.982Z,102507.16
2022-11-17T05:56:51.376Z,102513.25
2022-11-17T05:59:44.801Z,102515.81
2022-11-17T06:02:24.660Z,102514.94
2022-11-17T06:04:58.636Z,102518.44
2022-11-17T06:07:27.595Z,102512.22
2022-11-17T06:09:56.717Z,102516.63
2022-11-17T06:12:26.782Z,102506.06
2022-11-17T06:15:03.091Z,102506.03
2022-11-17T06:17:45.460Z,102498.91
2022-11-17T06:20:26.806Z,102504.13
2022-11-17T06:23:06.570Z,102504.09
2022-11-17T06:25:40.327Z,102501.41
2022-11-17T06:28:13.620Z,102503.16
2022-11-17T06:30:43.343Z,102496.09
2022-11-17T06:33:19.308Z,102490.78
2022-11-17T06:35:50.586Z,102493.41
2022-11-17T06:38:24.323Z,102492.47
2022-11-17T06:41:01.401Z,102489.78
2022-11-17T06:43:36.498Z,102487.16
2022-11-17T06:46:24.026Z,102481.91
2022-11-17T06:48:57.848Z,102488.88
2022-11-17T06:51:28.730Z,102483.50
2022-11-17T06:54:12.543Z,102485.22
2022-11-17T06:56:48.953Z,102485.22
2022-11-17T06:59:20.508Z,102479.88
2022-11-17T07:01:51.213Z,102478.97
2022-11-17T07:04:22.798Z,102471.03
2022-11-17T07:07:00.389Z,102471.91
2022-11-17T07:09:29.098Z,102484.19
2022-11-17T07:12:05.720Z,102475.41
2022-11-17T07:14:43.129Z,102478.91
2022-11-17T07:17:13.626Z,102477.09
2022-11-17T07:19:44.930Z,102465.66
2022-11-17T07:22:20.193Z,102463.91
2022-11-17T07:24:58.451Z,102461.28
2022-11-17T07:27:33.129Z,102458.59
2022-11-17T07:30:07.253Z,102466.47
2022-11-17T07:32:38.639Z,102458.53
2022-11-17T07:35:12.469Z,102454.13
2022-11-17T07:37:43.328Z,102460.25
2022-11-17T07:40:19.488Z,102460.22
2022-11-17T07:42:52.779Z,102452.31
2022-11-17T07:45:35.195Z,102442.63
2022-11-17T07:48:10.589Z,102448.75
2022-11-17T07:50:40.824Z,102444.31
2022-11-17T07:53:12.054Z,102445.13
2022-11-17T07:55:42.583Z,102448.66
2022-11-17T07:58:11.032Z,102451.25
2022-11-17T08:00:43.926Z,102449.44
2022-11-17T08:03:14.956Z,102448.53
2022-11-17T08:05:46.017Z,102444.97
2022-11-17T08:08:18.048Z,102454.66
2022-11-17T08:10:55.997Z,102459.03
2022-11-17T08:13:26.627Z,102456.34
2022-11-17T08:16:16.686Z,102450.94
2022-11-17T08:18:50.505Z,102450.06
2022-11-17T08:21:27.350Z,102444.78
2022-11-17T08:24:04.307Z,102439.44
2022-11-17T08:26:35.129Z,102440.28
2022-11-17T08:29:14.548Z,102434.06
2022-11-17T08:31:52.190Z,102424.41
2022-11-17T08:34:29.948Z,102423.47
2022-11-17T08:37:01.902Z,102423.47
2022-11-17T08:39:34.688Z,102424.34
2022-11-17T08:42:08.088Z,102425.16
2022-11-17T08:44:36.490Z,102421.63
2022-11-17T08:47:19.383Z,102411.91
2022-11-17T08:50:04.069Z,102420.63
2022-11-17T08:52:59.783Z,102419.69
2022-11-17T08:55:40.747Z,102417.00
2022-11-17T08:58:13.902Z,102421.31
2022-11-17T09:01:05.122Z,102428.34
2022-11-17T09:03:38.809Z,102418.69
2022-11-17T09:06:17.262Z,102427.41
2022-11-17T09:08:59.171Z,102425.63
2022-11-17T09:11:35.323Z,102416.84
2022-11-17T09:14:03.793Z,102418.56
2022-11-17T09:16:34.602Z,102412.41
2022-11-17T09:19:08.663Z,102416.72
2022-11-17T09:21:48.328Z,102417.56
2022-11-17T09:27:07.145Z,102428.94
2022-11-17T09:29:38.097Z,102427.13
2022-11-17T09:32:20.341Z,102427.03
2022-11-17T09:34:55.483Z,102419.13
2022-11-17T09:37:30.472Z,102422.63
2022-11-17T09:40:00.622Z,102419.88
2022-11-17T09:42:39.300Z,102421.59
2022-11-17T09:45:31.806Z,102424.22
2022-11-17T09:48:43.581Z,102427.59
2022-11-17T09:51:23.813Z,102425.78
2022-11-17T09:54:20.522Z,102426.56
2022-11-17T09:57:01.167Z,102422.97
2022-11-17T09:59:34.792Z,102423.78
2022-11-17T10:02:25.041Z,102411.50
2022-11-17T10:05:11.201Z,102423.75
2022-11-17T10:07:54.554Z,102416.75
2022-11-17T10:10:52.993Z,102412.31
2022-11-17T10:13:41.644Z,102413.19
2022-11-17T10:16:18.258Z,102414.03
2022-11-17T10:18:47.002Z,102405.16
2022-11-17T10:21:36.016Z,102416.44
2022-11-17T10:24:09.206Z,102411.09
2022-11-17T10:26:54.862Z,102416.31
2022-11-17T10:29:28.187Z,102413.63
2022-11-17T10:32:08.024Z,102411.84
2022-11-17T10:34:41.769Z,102410.91
2022-11-17T10:37:24.496Z,102407.34
2022-11-17T10:40:38.763Z,102406.34
2022-11-17T10:43:22.988Z,102404.50
2022-11-17T10:45:58.524Z,102408.84
2022-11-17T10:48:29.304Z,102410.53
2022-11-17T10:51:24.369Z,102410.50
2022-11-17T10:54:29.103Z,102406.94
2022-11-17T10:57:04.496Z,102408.50
2022-11-17T10:59:56.822Z,102402.34
2022-11-17T11:02:47.887Z,102405.84
2022-11-17T11:05:28.313Z,102392.75
2022-11-17T11:08:37.245Z,102395.47
2022-11-17T11:11:19.582Z,102405.25
2022-11-17T11:14:00.503Z,102408.66
2022-11-17T11:16:33.922Z,102401.50
2022-11-17T11:19:04.550Z,102400.50
2022-11-17T11:22:21.716Z,102400.41
2022-11-17T11:24:59.983Z,102400.41
2022-11-17T11:28:06.279Z,102388.16
2022-11-17T11:31:08.346Z,102395.13
2022-11-17T11:34:28.502Z,102396.84
2022-11-17T11:37:31.443Z,102380.13
2022-11-17T11:43:53.661Z,102385.25
2022-11-17T11:46:46.589Z,102384.34
2022-11-17T11:49:47.222Z,102374.69
2022-11-17T11:52:33.143Z,102379.00
2022-11-17T11:55:14.807Z,102372.81
2022-11-17T11:58:04.498Z,102370.06
2022-11-17T12:01:36.347Z,102365.63
2022-11-17T12:04:21.728Z,102368.16
2022-11-17T12:07:28.902Z,102369.09
2022-11-17T12:10:20.659Z,102368.16
2022-11-17T12:12:56.635Z,102367.28
2022-11-17T12:18:59.704Z,102373.50
2022-11-17T12:21:36.984Z,102366.44
2022-11-17T12:24:42.059Z,102367.25
2022-11-17T12:27:56.183Z,102376.00
2022-11-17T12:30:45.603Z,102371.53
2022-11-17T12:33:40.444Z,102363.56
2022-11-17T12:36:49.283Z,102363.44
2022-11-17T12:40:10.542Z,102369.50
2022-11-17T12:43:20.498Z,102356.22
2022-11-17T12:47:08.183Z,102364.03
2022-11-17T12:49:58.848Z,102365.69
2022-11-17T12:53:16.745Z,102367.41
2022-11-17T12:57:08.918Z,102371.03
2022-11-17T13:00:18.447Z,102382.47
2022-11-17T13:03:05.169Z,102373.69
2022-11-17T13:06:27.820Z,102369.34
2022-11-17T13:08:51.597Z,102374.59
2022-11-17T13:12:03.642Z,102377.94
2022-11-17T13:15:14.848Z,102368.19
2022-11-17T13:18:05.305Z,102366.44
2022-11-17T13:24:11.901Z,102370.66
2022-11-17T13:26:55.407Z,102381.06
2022-11-17T13:29:37.281Z,102389.03
2022-11-17T13:32:34.033Z,102386.44
2022-11-17T13:38:29.462Z,102376.84
2022-11-17T13:41:20.278Z,102376.84
2022-11-17T13:44:06.784Z,102376.06
2022-11-17T13:47:24.163Z,102373.50
2022-11-17T13:49:44.832Z,102376.16
2022-11-17T13:52:56.443Z,102372.66
2022-11-17T13:55:54.724Z,102374.31
2022-11-17T14:01:42.192Z,102368.94
2022-11-17T14:04:31.226Z,102362.59
2022-11-17T14:07:10.819Z,102374.72
2022-11-17T14:09:56.980Z,102372.97
2022-11-17T14:12:45.080Z,102370.22
2022-11-17T14:15:30.145Z,102375.38
2022-11-17T14:19:13.589Z,102373.66
2022-11-17T14:21:41.399Z,102377.16
2022-11-17T14:24:17.368Z,102375.41
2022-11-17T14:26:57.149Z,102382.34
2022-11-17T14:29:37.627Z,102392.66
2022-11-17T14:32:18.205Z,102388.25
2022-11-17T14:35:03.713Z,102388.16
2022-11-17T14:38:05.209Z,102386.53
2022-11-17T14:43:46.264Z,102390.16
2022-11-17T14:47:11.860Z,102399.75
2022-11-17T14:49:50.379Z,102397.03
2022-11-17T14:52:26.968Z,102395.28
2022-11-17T14:55:03.548Z,102397.88
2022-11-17T14:58:00.496Z,102405.75
2022-11-17T15:00:54.903Z,102401.41
2022-11-17T15:03:36.475Z,102401.47
2022-11-17T15:06:42.091Z,102404.13
2022-11-17T15:09:37.182Z,102398.09
2022-11-17T15:12:11.586Z,102400.66
2022-11-17T15:14:59.324Z,102400.59
2022-11-17T15:17:42.838Z,102393.63
2022-11-17T15:23:37.823Z,102381.59
2022-11-17T15:26:32.347Z,102392.22
2022-11-17T15:29:12.500Z,102389.63
2022-11-17T15:34:56.004Z,102379.25
2022-11-17T15:39:09.748Z,102377.50
2022-11-17T15:41:04.181Z,102370.59
2022-11-17T15:43:46.707Z,102381.22
2022-11-17T15:46:44.304Z,102382.31
2022-11-17T15:50:05.822Z,102383.44
2022-11-17T15:58:43.300Z,102377.75
2022-11-17T16:05:19.463Z,102369.31
2022-11-17T16:07:42.316Z,102363.38
2022-11-17T16:10:22.404Z,102349.53
2022-11-17T16:13:00.659Z,102356.72
2022-11-17T16:15:45.718Z,102358.66
2022-11-17T16:18:36.464Z,102365.13
2022-11-17T16:21:16.272Z,102362.81
2022-11-17T16:24:12.751Z,102356.94
2022-11-17T16:26:50.183Z,102354.56
2022-11-17T16:29:35.824Z,102350.38
2022-11-17T16:32:18.663Z,102346.25
2022-11-17T16:34:53.307Z,102346.44
2022-11-17T16:37:52.407Z,102349.28
2022-11-17T16:40:21.452Z,102345.97
2022-11-17T16:43:25.662Z,102355.75
2022-11-17T16:46:05.638Z,102363.00
2022-11-17T16:48:44.904Z,102371.06
2022-11-17T16:51:17.803Z,102373.84
2022-11-17T16:54:09.648Z,102372.22
2022-11-17T16:56:44.855Z,102368.78
2022-11-17T17:02:08.024Z,102361.09
2022-11-17T17:04:45.324Z,102363.88
2022-11-17T17:07:24.149Z,102367.53
2022-11-17T17:09:55.788Z,102368.56
2022-11-17T17:12:32.322Z,102381.91
2022-11-17T17:15:07.046Z,102372.34
2022-11-17T17:18:03.224Z,102361.84
2022-11-17T17:20:31.623Z,102352.19
2022-11-17T17:23:06.443Z,102360.16
2022-11-17T17:25:44.346Z,102360.22
2022-11-17T17:28:28.483Z,102350.53
2022-11-17T17:31:05.018Z,102347.06
2022-11-17T17:33:42.454Z,102337.41
2022-11-17T17:36:22.086Z,102338.31
2022-11-17T17:38:56.123Z,102331.25
2022-11-17T17:42:21.926Z,102326.84
2022-11-17T17:44:27.331Z,102326.88
2022-11-17T17:46:58.144Z,102327.75
2022-11-17T17:49:28.263Z,102320.69
2022-11-17T17:52:03.925Z,102325.09
2022-11-17T17:54:32.443Z,102327.75
2022-11-17T17:57:03.417Z,102328.63
2022-11-17T17:59:32.508Z,102328.59
2022-11-17T18:02:04.152Z,102333.91
2022-11-17T18:04:39.243Z,102329.47
2022-11-17T18:07:20.728Z,102334.75
2022-11-17T18:09:49.243Z,102323.25
2022-11-17T18:12:23.042Z,102322.34
2022-11-17T18:14:56.983Z,102329.38
2022-11-17T18:17:25.444Z,102326.69
2022-11-17T18:19:56.128Z,102328.44
2022-11-17T18:22:32.058Z,102326.59
2022-11-17T18:25:06.096Z,102331.81
2022-11-17T18:27:39.554Z,102331.75
2022-11-17T18:30:22.982Z,102328.16
2022-11-17T18:33:00.245Z,102316.63
2022-11-17T18:35:57.949Z,102325.44
2022-11-17T18:38:28.548Z,102316.53
2022-11-17T18:41:21.683Z,102308.53
2022-11-17T18:43:56.523Z,102307.59
2022-11-17T18:46:32.528Z,102312.84
2022-11-17T18:49:06.268Z,102315.41
2022-11-17T18:51:37.144Z,102309.97
2022-11-17T18:54:10.368Z,102313.31
2022-11-17T18:56:47.690Z,102306.03
2022-11-17T18:59:22.164Z,102296.06
2022-11-17T19:01:53.942Z,102285.19
2022-11-17T19:04:26.085Z,102282.25
2022-11-17T19:06:58.353Z,102281.16
2022-11-17T19:09:29.384Z,102276.59
2022-11-17T19:11:58.082Z,102278.25
2022-11-17T19:14:32.744Z,102272.84
2022-11-17T19:17:09.950Z,102278.97
2022-11-17T19:19:41.479Z,102288.72
2022-11-17T19:22:12.767Z,102282.50
2022-11-17T19:24:44.064Z,102281.53
2022-11-17T19:27:18.168Z,102283.25
2022-11-17T19:29:46.580Z,102278.72
2022-11-17T19:32:15.057Z,102272.34
2022-11-17T19:34:46.427Z,102257.03
2022-11-17T19:37:17.316Z,102247.88
2022-11-17T19:39:48.821Z,102243.19
2022-11-17T19:42:17.143Z,102236.00
2022-11-17T19:44:48.509Z,102222.59
2022-11-17T19:47:19.323Z,102227.91
2022-11-17T19:49:50.707Z,102224.28
2022-11-17T19:52:21.607Z,102220.63
2022-11-17T19:54:49.940Z,102216.84
2022-11-17T19:57:21.284Z,102221.06
2022-11-17T19:59:51.784Z,102215.28
2022-11-17T20:02:23.382Z,102202.47
2022-11-17T20:05:11.043Z,102192.34
2022-11-17T20:07:42.530Z,102185.81
2022-11-17T20:10:11.643Z,102179.44
2022-11-17T20:12:42.266Z,102180.97
2022-11-17T20:15:33.020Z,102189.59
2022-11-17T20:17:59.964Z,102186.56
2022-11-17T20:20:28.678Z,102186.50
2022-11-17T20:22:57.390Z,102181.72
2022-11-17T20:25:26.186Z,102175.97
2022-11-17T20:27:54.458Z,102155.19
2022-11-17T20:30:28.698Z,102154.13
2022-11-17T20:32:59.388Z,102140.41
2022-11-17T20:35:28.073Z,102126.81
2022-11-17T20:37:59.253Z,102119.56
2022-11-17T20:40:27.632Z,102109.81
2022-11-17T20:43:02.431Z,102113.22
2022-11-17T20:45:43.972Z,102115.84
2022-11-17T20:48:12.292Z,102111.09
2022-11-17T20:50:47.678Z,102103.63
2022-11-17T20:53:15.958Z,102103.22
2022-11-17T20:55:44.853Z,102102.94
2022-11-17T20:58:13.457Z,102095.41
2022-11-17T21:00:44.935Z,102094.03
2022-11-17T21:03:13.264Z,102086.38
2022-11-17T21:05:44.957Z,102089.38
2022-11-17T21:08:13.268Z,102077.50
2022-11-17T21:10:41.571Z,102072.69
2022-11-17T21:13:09.877Z,102074.81
2022-11-17T21:15:38.148Z,102065.28
2022-11-17T21:18:24.845Z,102063.84
2022-11-17T21:20:56.788Z,102055.28
2022-11-17T21:23:25.067Z,102049.44
2022-11-17T21:25:59.912Z,102048.00
2022-11-17T21:28:30.565Z,102053.00
2022-11-17T21:31:14.052Z,102045.75
2022-11-17T21:33:45.630Z,102053.00
2022-11-17T21:36:18.898Z,102049.38
2022-11-17T21:38:50.073Z,102042.88
2022-11-17T21:41:20.482Z,102042.19
2022-11-17T21:43:52.223Z,102037.44
2022-11-17T21:46:22.957Z,102029.47
2022-11-17T21:48:52.830Z,102024.31
2022-11-17T21:51:23.529Z,102028.78
2022-11-17T21:53:58.919Z,102025.50
2022-11-17T21:56:28.046Z,102031.72
2022-11-17T21:59:04.953Z,102036.03
2022-11-17T22:01:34.464Z,102025.03
2022-11-17T22:04:02.968Z,102024.38
2022-11-17T22:06:31.604Z,102015.44
2022-11-17T22:09:10.378Z,102017.47
2022-11-17T22:11:39.253Z,102018.97
2022-11-17T22:14:13.445Z,102028.56
2022-11-17T22:16:44.227Z,102030.03
2022-11-17T22:19:14.710Z,102021.63
2022-11-17T22:21:56.498Z,102017.41
2022-11-17T22:24:25.288Z,102024.13
2022-11-17T22:26:53.825Z,102024.25
2022-11-17T22:29:23.508Z,102015.44
2022-11-17T22:31:55.823Z,102024.66
2022-11-17T22:34:27.223Z,102019.28
2022-11-17T22:36:55.543Z,102012.72
2022-11-17T22:39:24.505Z,102001.19
2022-11-17T22:41:56.045Z,102005.75
2022-11-17T22:44:24.432Z,102013.97
2022-11-17T22:46:55.873Z,102015.94
2022-11-17T22:49:26.764Z,102016.06
2022-11-17T22:52:11.207Z,102008.06
2022-11-17T22:54:39.564Z,102012.50
2022-11-17T22:57:07.826Z,102009.06
2022-11-17T22:59:36.158Z,102004.47
2022-11-17T23:02:17.793Z,102003.63
2022-11-17T23:04:46.032Z,102001.63
2022-11-17T23:07:14.515Z,102008.75
2022-11-17T23:09:43.458Z,102008.84
2022-11-17T23:12:16.454Z,102013.56
2022-11-17T23:14:47.061Z,102015.69
2022-11-17T23:17:15.700Z,102019.31
2022-11-17T23:19:44.037Z,102016.59
2022-11-17T23:22:12.963Z,102022.84
2022-11-17T23:24:43.958Z,102012.06
2022-11-17T23:27:12.318Z,102000.47
2022-11-17T23:29:43.027Z,101990.59
2022-11-17T23:32:11.357Z,101994.97
2022-11-17T23:34:39.948Z,101995.91
2022-11-17T23:37:10.608Z,102006.81
2022-11-17T23:39:39.273Z,102006.97
2022-11-17T23:42:07.703Z,102006.22
2022-11-17T23:44:36.032Z,102008.22
2022-11-17T23:47:06.568Z,102001.28
2022-11-17T23:49:35.513Z,102006.84
2022-11-17T23:52:03.804Z,102001.81
2022-11-17T23:54:32.271Z,101993.94
2022-11-17T23:57:00.583Z,101997.69
2022-11-17T23:59:29.071Z,101991.56
